createdAt,value
2023-05-22T00:03:22.867Z,47.2
2023-05-22T00:09:27.894Z,47.2
2023-05-22T00:15:33.350Z,47.5
2023-05-22T00:21:39.610Z,47.2
2023-05-22T00:27:45.114Z,47
2023-05-22T00:33:50.909Z,47.1
2023-05-22T00:39:57.238Z,47.2
2023-05-22T00:46:02.507Z,47.3
2023-05-22T00:52:08.684Z,47.2
2023-05-22T00:58:14.041Z,47.3
2023-05-22T01:04:20.115Z,47.7
2023-05-22T01:10:25.976Z,47.4
2023-05-22T01:16:31.797Z,47.4
2023-05-22T01:22:37.391Z,47.6
2023-05-22T01:28:42.685Z,47.4
2023-05-22T01:34:48.261Z,47.4
2023-05-22T01:40:53.496Z,47.4
2023-05-22T01:46:58.793Z,47.5
2023-05-22T01:53:04.656Z,47.5
2023-05-22T01:59:10.348Z,47.6
2023-05-22T02:05:16.134Z,47.5
2023-05-22T02:11:22.013Z,47.4
2023-05-22T02:17:27.105Z,47.4
2023-05-22T02:23:33.340Z,47.4
2023-05-22T02:29:38.777Z,47.5
2023-05-22T02:35:43.795Z,47.3
2023-05-22T02:41:49.668Z,47.3
2023-05-22T02:47:56.204Z,47.3
2023-05-22T02:54:01.837Z,47.3
2023-05-22T03:00:06.927Z,47.3
2023-05-22T03:06:12.514Z,47.4
2023-05-22T03:12:18.472Z,47.4
2023-05-22T03:18:27.432Z,47.2
2023-05-22T03:24:33.567Z,47.3
2023-05-22T03:30:39.778Z,47.4
2023-05-22T03:36:45.330Z,47.3
2023-05-22T03:42:51.467Z,47.3
2023-05-22T03:48:57.024Z,47.3
2023-05-22T03:55:02.387Z,47.3
2023-05-22T04:01:07.539Z,47.3
2023-05-22T04:07:13.164Z,47.2
2023-05-22T04:13:18.882Z,47.2
2023-05-22T04:19:24.968Z,47.2
2023-05-22T04:25:30.139Z,47.2
2023-05-22T04:31:36.249Z,47.2
2023-05-22T04:37:42.204Z,47.2
2023-05-22T04:43:47.771Z,47.2
2023-05-22T04:49:53.372Z,47.2
2023-05-22T04:55:59.335Z,47.2
2023-05-22T05:02:05.128Z,47.2
2023-05-22T05:08:10.947Z,47.1
2023-05-22T05:14:16.877Z,47.2
2023-05-22T05:20:22.845Z,47.1
2023-05-22T05:26:28.081Z,47.1
2023-05-22T05:32:34.041Z,47
2023-05-22T05:38:39.251Z,47.1
2023-05-22T05:44:44.935Z,47.1
2023-05-22T05:50:50.973Z,47
2023-05-22T05:56:55.880Z,46.9
2023-05-22T06:03:02.013Z,47
2023-05-22T06:09:08.117Z,46.9
2023-05-22T06:15:13.043Z,46.8
2023-05-22T06:21:18.632Z,46.8
2023-05-22T06:27:23.400Z,46.8
2023-05-22T06:33:29.369Z,46.9
2023-05-22T06:39:35.162Z,46.9
2023-05-22T06:45:41.103Z,46.9
2023-05-22T06:51:47.079Z,46.7
2023-05-22T06:57:52.284Z,46.7
2023-05-22T07:03:58.836Z,46.7
2023-05-22T07:10:05.018Z,46.7
2023-05-22T07:16:10.889Z,46.7
2023-05-22T07:22:17.028Z,46.7
2023-05-22T07:28:22.982Z,46.6
2023-05-22T07:34:30.262Z,46.6
2023-05-22T07:40:36.161Z,46.7
2023-05-22T07:46:42.464Z,46.7
2023-05-22T07:52:48.333Z,46.8
2023-05-22T07:58:54.511Z,46.8
2023-05-22T08:05:00.560Z,46.8
2023-05-22T08:11:08.906Z,46.7
2023-05-22T08:17:15.202Z,46.6
2023-05-22T08:23:21.311Z,46.6
2023-05-22T08:29:27.093Z,46.5
2023-05-22T08:35:33.347Z,46.3
2023-05-22T08:41:39.695Z,46.3
2023-05-22T08:47:45.888Z,46.3
2023-05-22T08:53:51.438Z,46.3
2023-05-22T08:59:57.408Z,46.3
2023-05-22T09:06:03.452Z,46.2
2023-05-22T09:12:09.573Z,46.1
2023-05-22T09:18:15.763Z,46.2
2023-05-22T09:24:21.762Z,46.2
2023-05-22T09:30:28.157Z,46.1
2023-05-22T09:36:34.332Z,46.1
2023-05-22T09:42:40.328Z,46
2023-05-22T09:48:46.577Z,46
2023-05-22T09:54:52.698Z,46.1
2023-05-22T10:00:58.122Z,45.7
2023-05-22T10:07:04.050Z,45.9
2023-05-22T10:13:10.022Z,45.9
2023-05-22T10:19:16.247Z,45.8
2023-05-22T10:25:22.604Z,45.8
2023-05-22T10:31:28.236Z,46
2023-05-22T10:37:34.426Z,45.7
2023-05-22T10:43:40.562Z,45.8
2023-05-22T10:49:46.769Z,46
2023-05-22T10:55:52.721Z,45.9
2023-05-22T11:01:58.399Z,45.7
2023-05-22T11:08:04.081Z,45.8
2023-05-22T11:14:09.433Z,45.8
2023-05-22T11:20:16.668Z,45.7
2023-05-22T11:26:23.260Z,45.7
2023-05-22T11:32:30.088Z,45.7
2023-05-22T11:38:36.050Z,45.7
2023-05-22T11:44:41.819Z,45.7
2023-05-22T11:50:48.440Z,45.7
2023-05-22T11:56:54.622Z,45.7
2023-05-22T12:03:03.719Z,45.8
2023-05-22T12:09:09.849Z,45.7
2023-05-22T12:15:15.468Z,45.7
2023-05-22T12:21:21.203Z,45.7
2023-05-22T12:27:26.962Z,45.7
2023-05-22T12:33:32.567Z,45.7
2023-05-22T12:39:38.545Z,45.7
2023-05-22T12:45:44.508Z,45.7
2023-05-22T12:51:50.733Z,45.7
2023-05-22T12:57:56.893Z,45.7
2023-05-22T13:04:02.465Z,45.8
2023-05-22T13:10:08.461Z,45.7
2023-05-22T13:16:14.275Z,45.8
2023-05-22T13:22:19.999Z,45.8
2023-05-22T13:28:26.008Z,45.8
2023-05-22T13:34:31.621Z,45.8
2023-05-22T13:40:37.333Z,45.9
2023-05-22T13:46:44.183Z,45.9
2023-05-22T13:52:49.570Z,45.8
2023-05-22T13:58:55.149Z,45.9
2023-05-22T14:05:00.446Z,45.9
2023-05-22T14:11:06.005Z,46
2023-05-22T14:17:11.816Z,46
2023-05-22T14:23:17.762Z,45.9
2023-05-22T14:29:23.373Z,46
2023-05-22T14:35:28.506Z,46.1
2023-05-22T14:41:34.132Z,46
2023-05-22T14:47:39.873Z,46.1
2023-05-22T14:53:45.730Z,46.1
2023-05-22T14:59:51.202Z,46.2
2023-05-22T15:05:56.785Z,46.2
2023-05-22T15:12:02.214Z,46.2
2023-05-22T15:18:08.379Z,46.2
2023-05-22T15:24:13.980Z,46.2
2023-05-22T15:30:21.503Z,46.2
2023-05-22T15:36:28.570Z,46.2
2023-05-22T15:42:34.232Z,46.2
2023-05-22T15:48:39.900Z,46.2
2023-05-22T15:54:45.447Z,46.2
2023-05-22T16:00:51.502Z,46.2
2023-05-22T16:06:56.864Z,46.3
2023-05-22T16:13:02.487Z,46.3
2023-05-22T16:19:08.200Z,46.2
2023-05-22T16:25:13.836Z,46.3
2023-05-22T16:31:22.612Z,46.2
2023-05-22T16:37:28.593Z,46.2
2023-05-22T16:43:33.576Z,46.3
2023-05-22T16:49:39.724Z,46.2
2023-05-22T16:55:45.894Z,46.3
2023-05-22T17:01:51.278Z,46.3
2023-05-22T17:07:57.462Z,46.3
2023-05-22T17:14:03.274Z,46.3
2023-05-22T17:20:08.809Z,46.3
2023-05-22T17:26:14.376Z,46.3
2023-05-22T17:32:20.215Z,46.3
2023-05-22T17:38:25.985Z,46.4
2023-05-22T17:44:31.929Z,46.3
2023-05-22T17:50:37.818Z,46.3
2023-05-22T17:56:43.674Z,46.4
2023-05-22T18:02:50.120Z,46.4
2023-05-22T18:08:56.042Z,46.4
2023-05-22T18:15:01.682Z,46.4
2023-05-22T18:21:07.815Z,46.3
2023-05-22T18:27:13.458Z,46.4
2023-05-22T18:33:18.968Z,46.4
2023-05-22T18:39:24.535Z,46.4
2023-05-22T18:45:29.907Z,46.4
2023-05-22T18:51:36.075Z,46.5
2023-05-22T18:57:41.674Z,46.5
2023-05-22T19:03:47.852Z,46.6
2023-05-22T19:09:53.832Z,46.5
2023-05-22T19:15:59.704Z,46.5
2023-05-22T19:22:05.612Z,46.5
2023-05-22T19:28:11.033Z,46.5
2023-05-22T19:34:16.737Z,46.6
2023-05-22T19:40:22.326Z,46.7
2023-05-22T19:46:28.759Z,46.6
2023-05-22T19:52:35.365Z,46.6
2023-05-22T19:58:41.076Z,46.6
2023-05-22T20:04:47.050Z,46.7
2023-05-22T20:10:53.063Z,46.6
2023-05-22T20:16:58.883Z,46.7
2023-05-22T20:23:05.023Z,46.7
2023-05-22T20:29:11.427Z,46.7
2023-05-22T20:35:16.820Z,46.8
2023-05-22T20:41:23.172Z,46.9
2023-05-22T20:47:28.935Z,46.9
2023-05-22T20:53:34.747Z,47
2023-05-22T20:59:40.729Z,47
2023-05-22T21:05:46.695Z,47
2023-05-22T21:11:52.662Z,47.1
2023-05-22T21:17:58.593Z,47.1
2023-05-22T21:24:04.680Z,47.7
2023-05-22T21:30:10.212Z,47.7
2023-05-22T21:36:15.586Z,48.1
2023-05-22T21:42:21.960Z,48.5
2023-05-22T21:48:27.971Z,48.5
2023-05-22T21:54:33.516Z,48.2
2023-05-22T22:00:40.271Z,48.3
2023-05-22T22:06:46.168Z,48.5
2023-05-22T22:12:51.472Z,48.5
2023-05-22T22:18:58.184Z,48.4
2023-05-22T22:25:03.854Z,48.4
2023-05-22T22:31:10.078Z,48.4
2023-05-22T22:37:16.237Z,48.2
2023-05-22T22:43:22.008Z,48.4
2023-05-22T22:49:27.632Z,48.3
2023-05-22T22:55:33.355Z,48.2
2023-05-22T23:01:39.181Z,48.1
2023-05-22T23:07:44.928Z,48.2
2023-05-22T23:13:51.151Z,48.2
2023-05-22T23:19:57.099Z,48.3
2023-05-22T23:26:02.645Z,48.2
2023-05-22T23:32:08.304Z,48.3
2023-05-22T23:38:13.819Z,48.4
2023-05-22T23:44:19.590Z,48.4
2023-05-22T23:50:25.628Z,48.4
2023-05-22T23:56:31.130Z,48.4
